EDDV

Hannover

Airport
ICAO code
EDDV
Summary
ICAO Region
EUR
ICAO Territory
Location

Hannover, Germany,

Elevation
183 ft
Coordinates
52° 27' 40" N , 9° 41' 6" E
KCC
Cfb
Metar
Observation
EDDV 170950Z AUTO 12006KT 080V150 CAVOK 29/15 Q1011 NOSIG
Station
Hannover
Date/Time
2022-08-17 09:50:00
Wind direction
120°
Wind speed
06 kts
Lowest cloud amount
clouds and visibility OK
Temperature
29°C
Dew point
15°C
Humidity
42%
QNH
1011 hPa
Weather condition
n/a

Description

International airport serving Hannover, Germany.

Climatology

Temperate Marine climate/Oceanic climate (Köppen climate classification Cfb) - Moderately cool summer and comparatively warm winter.

Runways

Designator Length Width Surface Rops
09C/27C 780 23 ASP Yes/Yes
09R/27L 2340 45 CON Yes/Yes
09L/27R 3800 45 CON Yes/Yes

Airport map

Aerial View

Airport accidents

SKYbrary Partners:

Safety knowledge contributed by: